sensor_id;sensor_type;location;lat;lon;timestamp;P1;durP1;ratioP1;P2;durP2;ratioP2
66923;SDS011;53835;47.984;7.844;2022-09-02T00:02:04;3.80;;;2.60;;
66923;SDS011;53835;47.984;7.844;2022-09-02T00:04:32;3.93;;;2.77;;
66923;SDS011;53835;47.984;7.844;2022-09-02T00:06:59;2.80;;;2.60;;
66923;SDS011;53835;47.984;7.844;2022-09-02T00:09:26;3.03;;;2.57;;
66923;SDS011;53835;47.984;7.844;2022-09-02T00:11:54;4.43;;;2.70;;
66923;SDS011;53835;47.984;7.844;2022-09-02T00:14:23;2.90;;;2.50;;
66923;SDS011;53835;47.984;7.844;2022-09-02T00:16:51;3.30;;;3.00;;
66923;SDS011;53835;47.984;7.844;2022-09-02T00:19:19;3.07;;;2.40;;
66923;SDS011;53835;47.984;7.844;2022-09-02T00:21:47;2.70;;;2.50;;
66923;SDS011;53835;47.984;7.844;2022-09-02T00:24:14;2.60;;;2.40;;
66923;SDS011;53835;47.984;7.844;2022-09-02T00:26:43;2.80;;;2.52;;
66923;SDS011;53835;47.984;7.844;2022-09-02T00:29:10;2.95;;;2.65;;
66923;SDS011;53835;47.984;7.844;2022-09-02T00:31:40;2.40;;;2.20;;
66923;SDS011;53835;47.984;7.844;2022-09-02T00:34:08;3.37;;;2.53;;
66923;SDS011;53835;47.984;7.844;2022-09-02T00:36:35;2.77;;;2.45;;
66923;SDS011;53835;47.984;7.844;2022-09-02T00:39:03;2.90;;;2.60;;
66923;SDS011;53835;47.984;7.844;2022-09-02T00:41:33;2.70;;;2.50;;
66923;SDS011;53835;47.984;7.844;2022-09-02T00:44:02;2.72;;;2.52;;
66923;SDS011;53835;47.984;7.844;2022-09-02T00:46:30;3.13;;;2.70;;
66923;SDS011;53835;47.984;7.844;2022-09-02T00:51:33;3.57;;;2.77;;
66923;SDS011;53835;47.984;7.844;2022-09-02T00:54:01;3.87;;;2.73;;
66923;SDS011;53835;47.984;7.844;2022-09-02T00:56:30;3.67;;;2.47;;
66923;SDS011;53835;47.984;7.844;2022-09-02T00:58:58;4.03;;;2.70;;
66923;SDS011;53835;47.984;7.844;2022-09-02T01:01:26;4.50;;;2.70;;
66923;SDS011;53835;47.984;7.844;2022-09-02T01:03:53;4.60;;;2.80;;
66923;SDS011;53835;47.984;7.844;2022-09-02T01:06:22;3.63;;;2.70;;
66923;SDS011;53835;47.984;7.844;2022-09-02T01:08:51;3.27;;;2.77;;
66923;SDS011;53835;47.984;7.844;2022-09-02T01:11:19;3.37;;;2.70;;
66923;SDS011;53835;47.984;7.844;2022-09-02T01:13:47;3.03;;;2.73;;
66923;SDS011;53835;47.984;7.844;2022-09-02T01:16:25;3.80;;;2.73;;
66923;SDS011;53835;47.984;7.844;2022-09-02T01:18:54;4.60;;;2.70;;
66923;SDS011;53835;47.984;7.844;2022-09-02T01:21:21;2.93;;;2.40;;
66923;SDS011;53835;47.984;7.844;2022-09-02T01:23:49;3.33;;;2.80;;
66923;SDS011;53835;47.984;7.844;2022-09-02T01:26:17;3.43;;;2.70;;
66923;SDS011;53835;47.984;7.844;2022-09-02T01:28:44;3.03;;;2.60;;
66923;SDS011;53835;47.984;7.844;2022-09-02T01:31:12;6.43;;;2.70;;
66923;SDS011;53835;47.984;7.844;2022-09-02T01:33:39;2.93;;;2.60;;
66923;SDS011;53835;47.984;7.844;2022-09-02T01:36:07;2.80;;;2.50;;
66923;SDS011;53835;47.984;7.844;2022-09-02T01:38:34;2.93;;;2.30;;
66923;SDS011;53835;47.984;7.844;2022-09-02T01:41:01;3.90;;;2.70;;
66923;SDS011;53835;47.984;7.844;2022-09-02T01:43:29;3.57;;;2.80;;
66923;SDS011;53835;47.984;7.844;2022-09-02T01:45:57;3.03;;;2.80;;
66923;SDS011;53835;47.984;7.844;2022-09-02T01:48:24;3.83;;;2.57;;
66923;SDS011;53835;47.984;7.844;2022-09-02T01:50:53;3.17;;;2.60;;
66923;SDS011;53835;47.984;7.844;2022-09-02T01:53:20;2.90;;;2.70;;
66923;SDS011;53835;47.984;7.844;2022-09-02T01:55:48;5.13;;;2.30;;
66923;SDS011;53835;47.984;7.844;2022-09-02T01:58:15;2.87;;;2.57;;
66923;SDS011;53835;47.984;7.844;2022-09-02T02:00:43;4.80;;;2.57;;
66923;SDS011;53835;47.984;7.844;2022-09-02T02:03:11;3.47;;;2.50;;
66923;SDS011;53835;47.984;7.844;2022-09-02T02:05:38;2.70;;;2.50;;
66923;SDS011;53835;47.984;7.844;2022-09-02T02:08:06;5.77;;;2.77;;
66923;SDS011;53835;47.984;7.844;2022-09-02T02:10:33;2.43;;;2.30;;
66923;SDS011;53835;47.984;7.844;2022-09-02T02:13:01;3.77;;;2.40;;
66923;SDS011;53835;47.984;7.844;2022-09-02T02:15:28;4.23;;;2.33;;
66923;SDS011;53835;47.984;7.844;2022-09-02T02:17:56;4.00;;;2.40;;
66923;SDS011;53835;47.984;7.844;2022-09-02T02:20:23;3.80;;;2.60;;
66923;SDS011;53835;47.984;7.844;2022-09-02T02:22:52;3.57;;;2.40;;
66923;SDS011;53835;47.984;7.844;2022-09-02T02:25:19;2.50;;;2.30;;
66923;SDS011;53835;47.984;7.844;2022-09-02T02:27:46;4.37;;;2.50;;
66923;SDS011;53835;47.984;7.844;2022-09-02T02:30:14;2.87;;;2.57;;
66923;SDS011;53835;47.984;7.844;2022-09-02T02:32:42;3.20;;;2.47;;
66923;SDS011;53835;47.984;7.844;2022-09-02T02:35:13;3.70;;;2.60;;
66923;SDS011;53835;47.984;7.844;2022-09-02T02:37:41;3.70;;;2.30;;
66923;SDS011;53835;47.984;7.844;2022-09-02T02:40:09;3.23;;;2.53;;
66923;SDS011;53835;47.984;7.844;2022-09-02T02:42:37;3.90;;;3.00;;
66923;SDS011;53835;47.984;7.844;2022-09-02T02:45:05;3.53;;;2.30;;
66923;SDS011;53835;47.984;7.844;2022-09-02T02:47:37;3.23;;;2.60;;
66923;SDS011;53835;47.984;7.844;2022-09-02T02:50:04;2.83;;;2.30;;
66923;SDS011;53835;47.984;7.844;2022-09-02T02:52:32;2.77;;;2.30;;
66923;SDS011;53835;47.984;7.844;2022-09-02T02:54:59;3.00;;;2.50;;
66923;SDS011;53835;47.984;7.844;2022-09-02T02:57:27;3.53;;;2.50;;
66923;SDS011;53835;47.984;7.844;2022-09-02T02:59:54;3.33;;;2.40;;
66923;SDS011;53835;47.984;7.844;2022-09-02T03:02:23;3.40;;;2.70;;
66923;SDS011;53835;47.984;7.844;2022-09-02T03:04:50;3.83;;;2.50;;
66923;SDS011;53835;47.984;7.844;2022-09-02T03:07:19;5.03;;;2.73;;
66923;SDS011;53835;47.984;7.844;2022-09-02T03:09:47;3.70;;;2.60;;
66923;SDS011;53835;47.984;7.844;2022-09-02T03:12:14;3.37;;;2.43;;
66923;SDS011;53835;47.984;7.844;2022-09-02T03:14:42;7.80;;;2.93;;
66923;SDS011;53835;47.984;7.844;2022-09-02T03:17:09;2.67;;;2.47;;
66923;SDS011;53835;47.984;7.844;2022-09-02T03:19:36;2.63;;;2.43;;
66923;SDS011;53835;47.984;7.844;2022-09-02T03:22:04;3.20;;;2.50;;
66923;SDS011;53835;47.984;7.844;2022-09-02T03:24:31;5.53;;;2.60;;
66923;SDS011;53835;47.984;7.844;2022-09-02T03:26:59;3.27;;;2.70;;
66923;SDS011;53835;47.984;7.844;2022-09-02T03:29:27;2.70;;;2.33;;
66923;SDS011;53835;47.984;7.844;2022-09-02T03:31:54;3.87;;;2.63;;
66923;SDS011;53835;47.984;7.844;2022-09-02T03:34:22;6.33;;;2.50;;
66923;SDS011;53835;47.984;7.844;2022-09-02T03:36:49;3.80;;;2.47;;
66923;SDS011;53835;47.984;7.844;2022-09-02T03:39:16;4.57;;;2.43;;
66923;SDS011;53835;47.984;7.844;2022-09-02T03:41:45;5.17;;;2.77;;
66923;SDS011;53835;47.984;7.844;2022-09-02T03:44:14;3.43;;;2.73;;
66923;SDS011;53835;47.984;7.844;2022-09-02T03:46:41;3.20;;;2.57;;
66923;SDS011;53835;47.984;7.844;2022-09-02T03:49:09;4.50;;;3.13;;
66923;SDS011;53835;47.984;7.844;2022-09-02T03:51:39;2.50;;;2.30;;
66923;SDS011;53835;47.984;7.844;2022-09-02T03:54:05;4.73;;;2.50;;
66923;SDS011;53835;47.984;7.844;2022-09-02T03:56:33;4.53;;;2.83;;
66923;SDS011;53835;47.984;7.844;2022-09-02T03:59:00;2.80;;;2.60;;
66923;SDS011;53835;47.984;7.844;2022-09-02T04:01:28;3.10;;;2.57;;
66923;SDS011;53835;47.984;7.844;2022-09-02T04:03:55;3.00;;;2.70;;
66923;SDS011;53835;47.984;7.844;2022-09-02T04:06:22;3.47;;;2.70;;
66923;SDS011;53835;47.984;7.844;2022-09-02T04:08:50;3.00;;;2.80;;
66923;SDS011;53835;47.984;7.844;2022-09-02T04:11:19;5.27;;;2.90;;
66923;SDS011;53835;47.984;7.844;2022-09-02T04:13:46;2.97;;;2.70;;
66923;SDS011;53835;47.984;7.844;2022-09-02T04:16:15;6.97;;;2.80;;
66923;SDS011;53835;47.984;7.844;2022-09-02T04:18:43;5.27;;;2.30;;
66923;SDS011;53835;47.984;7.844;2022-09-02T04:21:10;2.77;;;2.57;;
66923;SDS011;53835;47.984;7.844;2022-09-02T04:23:38;3.50;;;2.60;;
66923;SDS011;53835;47.984;7.844;2022-09-02T04:26:09;2.60;;;2.40;;
66923;SDS011;53835;47.984;7.844;2022-09-02T04:28:37;2.93;;;2.20;;
66923;SDS011;53835;47.984;7.844;2022-09-02T04:31:05;3.27;;;2.63;;
66923;SDS011;53835;47.984;7.844;2022-09-02T04:33:33;5.00;;;2.60;;
66923;SDS011;53835;47.984;7.844;2022-09-02T04:36:03;2.90;;;2.60;;
66923;SDS011;53835;47.984;7.844;2022-09-02T04:38:29;4.60;;;2.57;;
66923;SDS011;53835;47.984;7.844;2022-09-02T04:40:56;3.80;;;2.30;;
66923;SDS011;53835;47.984;7.844;2022-09-02T04:43:24;2.70;;;2.50;;
66923;SDS011;53835;47.984;7.844;2022-09-02T04:45:51;6.97;;;2.90;;
66923;SDS011;53835;47.984;7.844;2022-09-02T04:48:18;8.03;;;2.80;;
66923;SDS011;53835;47.984;7.844;2022-09-02T04:50:46;3.20;;;2.90;;
66923;SDS011;53835;47.984;7.844;2022-09-02T04:53:14;3.40;;;2.60;;
66923;SDS011;53835;47.984;7.844;2022-09-02T04:55:42;5.13;;;2.40;;
66923;SDS011;53835;47.984;7.844;2022-09-02T04:58:09;3.00;;;2.60;;
66923;SDS011;53835;47.984;7.844;2022-09-02T05:00:37;2.60;;;2.30;;
66923;SDS011;53835;47.984;7.844;2022-09-02T05:03:05;3.10;;;2.57;;
66923;SDS011;53835;47.984;7.844;2022-09-02T05:05:33;5.80;;;2.87;;
66923;SDS011;53835;47.984;7.844;2022-09-02T05:08:00;4.70;;;2.40;;
66923;SDS011;53835;47.984;7.844;2022-09-02T05:10:29;4.30;;;2.77;;
66923;SDS011;53835;47.984;7.844;2022-09-02T05:12:58;4.10;;;2.60;;
66923;SDS011;53835;47.984;7.844;2022-09-02T05:15:25;5.27;;;2.60;;
66923;SDS011;53835;47.984;7.844;2022-09-02T05:17:54;3.30;;;2.57;;
66923;SDS011;53835;47.984;7.844;2022-09-02T05:20:21;3.07;;;2.27;;
66923;SDS011;53835;47.984;7.844;2022-09-02T05:22:49;4.67;;;2.50;;
66923;SDS011;53835;47.984;7.844;2022-09-02T05:25:16;4.80;;;2.30;;
66923;SDS011;53835;47.984;7.844;2022-09-02T05:27:43;4.63;;;2.60;;
66923;SDS011;53835;47.984;7.844;2022-09-02T05:30:11;3.57;;;2.80;;
66923;SDS011;53835;47.984;7.844;2022-09-02T05:32:38;2.90;;;2.40;;
66923;SDS011;53835;47.984;7.844;2022-09-02T05:35:07;2.67;;;2.47;;
66923;SDS011;53835;47.984;7.844;2022-09-02T05:37:34;4.50;;;2.80;;
66923;SDS011;53835;47.984;7.844;2022-09-02T05:40:02;3.50;;;2.37;;
66923;SDS011;53835;47.984;7.844;2022-09-02T05:42:29;3.23;;;2.50;;
66923;SDS011;53835;47.984;7.844;2022-09-02T05:44:57;5.33;;;3.00;;
66923;SDS011;53835;47.984;7.844;2022-09-02T05:47:24;4.77;;;2.67;;
66923;SDS011;53835;47.984;7.844;2022-09-02T05:49:51;2.60;;;2.40;;
66923;SDS011;53835;47.984;7.844;2022-09-02T05:52:18;2.97;;;2.50;;
66923;SDS011;53835;47.984;7.844;2022-09-02T05:54:46;4.43;;;2.53;;
66923;SDS011;53835;47.984;7.844;2022-09-02T05:57:15;5.93;;;2.50;;
66923;SDS011;53835;47.984;7.844;2022-09-02T05:59:43;2.60;;;2.40;;
66923;SDS011;53835;47.984;7.844;2022-09-02T06:02:12;6.57;;;2.37;;
66923;SDS011;53835;47.984;7.844;2022-09-02T06:04:41;7.10;;;2.40;;
66923;SDS011;53835;47.984;7.844;2022-09-02T06:07:09;2.83;;;2.43;;
66923;SDS011;53835;47.984;7.844;2022-09-02T06:09:36;2.83;;;2.40;;
66923;SDS011;53835;47.984;7.844;2022-09-02T06:12:03;4.63;;;2.43;;
66923;SDS011;53835;47.984;7.844;2022-09-02T06:14:31;3.40;;;2.27;;
66923;SDS011;53835;47.984;7.844;2022-09-02T06:16:58;5.23;;;2.30;;
66923;SDS011;53835;47.984;7.844;2022-09-02T06:19:26;3.77;;;2.53;;
66923;SDS011;53835;47.984;7.844;2022-09-02T06:21:55;2.83;;;2.57;;
66923;SDS011;53835;47.984;7.844;2022-09-02T06:24:23;3.73;;;2.60;;
66923;SDS011;53835;47.984;7.844;2022-09-02T06:26:50;5.30;;;2.23;;
66923;SDS011;53835;47.984;7.844;2022-09-02T06:29:19;3.80;;;2.20;;
66923;SDS011;53835;47.984;7.844;2022-09-02T06:31:47;3.20;;;2.90;;
66923;SDS011;53835;47.984;7.844;2022-09-02T06:34:15;2.83;;;2.17;;
66923;SDS011;53835;47.984;7.844;2022-09-02T06:36:44;2.23;;;2.00;;
66923;SDS011;53835;47.984;7.844;2022-09-02T06:39:13;2.20;;;2.00;;
66923;SDS011;53835;47.984;7.844;2022-09-02T06:41:41;6.07;;;2.40;;
66923;SDS011;53835;47.984;7.844;2022-09-02T06:44:09;3.60;;;2.30;;
66923;SDS011;53835;47.984;7.844;2022-09-02T06:46:38;2.40;;;2.20;;
66923;SDS011;53835;47.984;7.844;2022-09-02T06:49:06;2.60;;;2.40;;
66923;SDS011;53835;47.984;7.844;2022-09-02T06:51:38;3.30;;;2.13;;
66923;SDS011;53835;47.984;7.844;2022-09-02T06:54:06;5.10;;;2.50;;
66923;SDS011;53835;47.984;7.844;2022-09-02T06:56:34;2.33;;;2.20;;
66923;SDS011;53835;47.984;7.844;2022-09-02T06:59:02;2.90;;;2.60;;
66923;SDS011;53835;47.984;7.844;2022-09-02T07:01:30;4.37;;;2.80;;
66923;SDS011;53835;47.984;7.844;2022-09-02T07:03:57;4.57;;;2.70;;
66923;SDS011;53835;47.984;7.844;2022-09-02T07:06:44;3.40;;;2.70;;
66923;SDS011;53835;47.984;7.844;2022-09-02T07:09:14;4.77;;;3.10;;
66923;SDS011;53835;47.984;7.844;2022-09-02T07:11:41;5.77;;;3.17;;
66923;SDS011;53835;47.984;7.844;2022-09-02T07:14:10;4.80;;;3.37;;
66923;SDS011;53835;47.984;7.844;2022-09-02T07:16:41;5.40;;;3.10;;
66923;SDS011;53835;47.984;7.844;2022-09-02T07:19:06;4.20;;;3.50;;
66923;SDS011;53835;47.984;7.844;2022-09-02T07:21:34;3.77;;;3.33;;
66923;SDS011;53835;47.984;7.844;2022-09-02T07:24:01;3.83;;;3.37;;
66923;SDS011;53835;47.984;7.844;2022-09-02T07:26:29;4.60;;;3.23;;
66923;SDS011;53835;47.984;7.844;2022-09-02T07:28:56;3.63;;;3.00;;
66923;SDS011;53835;47.984;7.844;2022-09-02T07:31:24;4.87;;;3.20;;
66923;SDS011;53835;47.984;7.844;2022-09-02T07:33:52;4.10;;;2.90;;
66923;SDS011;53835;47.984;7.844;2022-09-02T07:36:21;3.20;;;2.90;;
66923;SDS011;53835;47.984;7.844;2022-09-02T07:38:49;5.43;;;2.83;;
66923;SDS011;53835;47.984;7.844;2022-09-02T07:41:16;3.00;;;2.70;;
66923;SDS011;53835;47.984;7.844;2022-09-02T07:43:44;3.70;;;2.83;;
66923;SDS011;53835;47.984;7.844;2022-09-02T07:46:12;3.60;;;2.90;;
66923;SDS011;53835;47.984;7.844;2022-09-02T07:48:39;7.30;;;2.80;;
66923;SDS011;53835;47.984;7.844;2022-09-02T07:51:07;6.67;;;3.07;;
66923;SDS011;53835;47.984;7.844;2022-09-02T07:53:35;5.27;;;3.00;;
66923;SDS011;53835;47.984;7.844;2022-09-02T07:56:02;4.00;;;2.67;;
66923;SDS011;53835;47.984;7.844;2022-09-02T07:58:30;5.37;;;2.77;;
66923;SDS011;53835;47.984;7.844;2022-09-02T08:00:57;5.80;;;2.80;;
66923;SDS011;53835;47.984;7.844;2022-09-02T08:03:24;4.95;;;2.52;;
66923;SDS011;53835;47.984;7.844;2022-09-02T08:05:52;3.83;;;2.90;;
66923;SDS011;53835;47.984;7.844;2022-09-02T08:08:19;3.10;;;2.80;;
66923;SDS011;53835;47.984;7.844;2022-09-02T08:10:48;3.80;;;2.77;;
66923;SDS011;53835;47.984;7.844;2022-09-02T08:13:16;2.77;;;2.30;;
66923;SDS011;53835;47.984;7.844;2022-09-02T08:15:44;4.90;;;2.50;;
66923;SDS011;53835;47.984;7.844;2022-09-02T08:18:11;3.25;;;2.42;;
66923;SDS011;53835;47.984;7.844;2022-09-02T08:20:39;5.42;;;2.77;;
66923;SDS011;53835;47.984;7.844;2022-09-02T08:23:06;3.35;;;2.50;;
66923;SDS011;53835;47.984;7.844;2022-09-02T08:25:34;2.90;;;2.43;;
66923;SDS011;53835;47.984;7.844;2022-09-02T08:28:02;3.33;;;2.30;;
66923;SDS011;53835;47.984;7.844;2022-09-02T08:30:30;3.63;;;2.50;;
66923;SDS011;53835;47.984;7.844;2022-09-02T08:32:58;3.85;;;2.60;;
66923;SDS011;53835;47.984;7.844;2022-09-02T08:35:25;2.92;;;2.40;;
66923;SDS011;53835;47.984;7.844;2022-09-02T08:37:52;2.80;;;2.58;;
66923;SDS011;53835;47.984;7.844;2022-09-02T08:40:21;3.50;;;2.62;;
66923;SDS011;53835;47.984;7.844;2022-09-02T08:42:50;4.12;;;2.58;;
66923;SDS011;53835;47.984;7.844;2022-09-02T08:45:19;3.87;;;2.70;;
66923;SDS011;53835;47.984;7.844;2022-09-02T08:47:48;3.45;;;2.42;;
66923;SDS011;53835;47.984;7.844;2022-09-02T08:50:16;4.25;;;2.70;;
66923;SDS011;53835;47.984;7.844;2022-09-02T08:55:18;4.95;;;2.70;;
66923;SDS011;53835;47.984;7.844;2022-09-02T08:57:41;3.50;;;2.77;;
66923;SDS011;53835;47.984;7.844;2022-09-02T09:00:10;3.00;;;2.50;;
66923;SDS011;53835;47.984;7.844;2022-09-02T09:10:27;4.25;;;2.80;;
66923;SDS011;53835;47.984;7.844;2022-09-02T09:12:57;5.05;;;2.83;;
66923;SDS011;53835;47.984;7.844;2022-09-02T09:15:27;4.40;;;2.67;;
66923;SDS011;53835;47.984;7.844;2022-09-02T09:17:51;3.98;;;2.60;;
66923;SDS011;53835;47.984;7.844;2022-09-02T09:20:20;3.55;;;2.60;;
66923;SDS011;53835;47.984;7.844;2022-09-02T09:22:48;2.80;;;2.50;;
66923;SDS011;53835;47.984;7.844;2022-09-02T09:25:17;4.28;;;2.60;;
66923;SDS011;53835;47.984;7.844;2022-09-02T09:27:44;4.08;;;2.40;;
66923;SDS011;53835;47.984;7.844;2022-09-02T09:30:12;4.15;;;2.55;;
66923;SDS011;53835;47.984;7.844;2022-09-02T09:32:40;2.95;;;2.60;;
66923;SDS011;53835;47.984;7.844;2022-09-02T09:35:09;5.30;;;2.60;;
66923;SDS011;53835;47.984;7.844;2022-09-02T09:37:37;3.00;;;2.70;;
66923;SDS011;53835;47.984;7.844;2022-09-02T09:42:46;2.72;;;2.40;;
66923;SDS011;53835;47.984;7.844;2022-09-02T09:45:18;4.03;;;2.40;;
66923;SDS011;53835;47.984;7.844;2022-09-02T09:47:43;2.37;;;2.08;;
66923;SDS011;53835;47.984;7.844;2022-09-02T09:50:12;3.67;;;2.40;;
66923;SDS011;53835;47.984;7.844;2022-09-02T09:52:39;3.27;;;2.30;;
66923;SDS011;53835;47.984;7.844;2022-09-02T09:55:12;2.62;;;2.30;;
66923;SDS011;53835;47.984;7.844;2022-09-02T09:57:40;3.17;;;2.22;;
66923;SDS011;53835;47.984;7.844;2022-09-02T10:00:13;4.78;;;2.52;;
66923;SDS011;53835;47.984;7.844;2022-09-02T10:02:44;5.60;;;2.50;;
66923;SDS011;53835;47.984;7.844;2022-09-02T10:05:15;2.42;;;2.22;;
66923;SDS011;53835;47.984;7.844;2022-09-02T10:07:39;6.05;;;2.40;;
66923;SDS011;53835;47.984;7.844;2022-09-02T10:10:18;2.35;;;2.15;;
66923;SDS011;53835;47.984;7.844;2022-09-02T10:12:45;2.35;;;2.15;;
66923;SDS011;53835;47.984;7.844;2022-09-02T10:15:13;3.37;;;2.37;;
66923;SDS011;53835;47.984;7.844;2022-09-02T10:25:26;2.40;;;2.20;;
66923;SDS011;53835;47.984;7.844;2022-09-02T10:30:54;3.72;;;2.10;;
66923;SDS011;53835;47.984;7.844;2022-09-02T10:35:53;2.58;;;1.80;;
66923;SDS011;53835;47.984;7.844;2022-09-02T10:43:57;4.58;;;2.00;;
66923;SDS011;53835;47.984;7.844;2022-09-02T10:46:21;2.83;;;2.10;;
66923;SDS011;53835;47.984;7.844;2022-09-02T10:49:05;2.37;;;1.90;;
66923;SDS011;53835;47.984;7.844;2022-09-02T10:51:29;2.60;;;1.95;;
66923;SDS011;53835;47.984;7.844;2022-09-02T10:59:18;2.17;;;1.65;;
66923;SDS011;53835;47.984;7.844;2022-09-02T11:01:51;1.70;;;1.52;;
66923;SDS011;53835;47.984;7.844;2022-09-02T11:06:52;2.67;;;1.60;;
66923;SDS011;53835;47.984;7.844;2022-09-02T11:11:58;1.85;;;1.52;;
66923;SDS011;53835;47.984;7.844;2022-09-02T11:14:23;2.00;;;1.70;;
66923;SDS011;53835;47.984;7.844;2022-09-02T11:16:53;4.03;;;1.70;;
66923;SDS011;53835;47.984;7.844;2022-09-02T11:22:09;1.77;;;1.67;;
66923;SDS011;53835;47.984;7.844;2022-09-02T11:24:51;3.83;;;1.60;;
66923;SDS011;53835;47.984;7.844;2022-09-02T11:27:23;2.25;;;1.62;;
66923;SDS011;53835;47.984;7.844;2022-09-02T11:32:22;2.12;;;1.60;;
66923;SDS011;53835;47.984;7.844;2022-09-02T11:34:46;3.87;;;1.70;;
66923;SDS011;53835;47.984;7.844;2022-09-02T11:39:59;2.45;;;1.60;;
66923;SDS011;53835;47.984;7.844;2022-09-02T11:47:34;1.85;;;1.60;;
66923;SDS011;53835;47.984;7.844;2022-09-02T11:57:41;1.50;;;1.40;;
66923;SDS011;53835;47.984;7.844;2022-09-02T12:00:23;2.90;;;1.70;;
66923;SDS011;53835;47.984;7.844;2022-09-02T12:02:39;2.22;;;1.40;;
66923;SDS011;53835;47.984;7.844;2022-09-02T12:07:56;1.55;;;1.42;;
66923;SDS011;53835;47.984;7.844;2022-09-02T12:13:09;2.33;;;1.80;;
66923;SDS011;53835;47.984;7.844;2022-09-02T12:15:37;1.85;;;1.62;;
66923;SDS011;53835;47.984;7.844;2022-09-02T12:18:27;2.37;;;1.70;;
66923;SDS011;53835;47.984;7.844;2022-09-02T12:26:11;4.60;;;2.00;;
66923;SDS011;53835;47.984;7.844;2022-09-02T12:28:38;2.05;;;1.72;;
66923;SDS011;53835;47.984;7.844;2022-09-02T12:33:41;2.17;;;1.72;;
66923;SDS011;53835;47.984;7.844;2022-09-02T12:41:43;1.90;;;1.80;;
66923;SDS011;53835;47.984;7.844;2022-09-02T12:44:19;2.72;;;1.87;;
66923;SDS011;53835;47.984;7.844;2022-09-02T12:46:47;2.00;;;1.85;;
66923;SDS011;53835;47.984;7.844;2022-09-02T12:51:59;1.90;;;1.80;;
66923;SDS011;53835;47.984;7.844;2022-09-02T12:54:43;2.22;;;1.80;;
66923;SDS011;53835;47.984;7.844;2022-09-02T12:57:13;3.77;;;1.80;;
66923;SDS011;53835;47.984;7.844;2022-09-02T12:59:42;2.83;;;1.82;;
66923;SDS011;53835;47.984;7.844;2022-09-02T13:05:00;3.83;;;1.90;;
66923;SDS011;53835;47.984;7.844;2022-09-02T13:18:15;2.27;;;2.00;;
66923;SDS011;53835;47.984;7.844;2022-09-02T13:26:12;2.62;;;1.60;;
66923;SDS011;53835;47.984;7.844;2022-09-02T13:31:27;4.75;;;2.30;;
66923;SDS011;53835;47.984;7.844;2022-09-02T13:34:04;2.00;;;1.80;;
66923;SDS011;53835;47.984;7.844;2022-09-02T13:36:37;3.58;;;2.00;;
66923;SDS011;53835;47.984;7.844;2022-09-02T13:39:11;2.15;;;1.82;;
66923;SDS011;53835;47.984;7.844;2022-09-02T13:41:38;2.47;;;2.05;;
66923;SDS011;53835;47.984;7.844;2022-09-02T13:44:19;2.67;;;2.12;;
66923;SDS011;53835;47.984;7.844;2022-09-02T13:46:44;2.02;;;1.92;;
66923;SDS011;53835;47.984;7.844;2022-09-02T13:49:21;2.00;;;1.80;;
66923;SDS011;53835;47.984;7.844;2022-09-02T13:51:50;3.02;;;2.10;;
66923;SDS011;53835;47.984;7.844;2022-09-02T13:54:27;2.27;;;1.77;;
66923;SDS011;53835;47.984;7.844;2022-09-02T13:56:53;1.80;;;1.70;;
66923;SDS011;53835;47.984;7.844;2022-09-02T13:59:35;3.05;;;1.90;;
66923;SDS011;53835;47.984;7.844;2022-09-02T14:01:58;2.30;;;2.00;;
66923;SDS011;53835;47.984;7.844;2022-09-02T14:04:26;2.70;;;2.10;;
66923;SDS011;53835;47.984;7.844;2022-09-02T14:06:53;1.70;;;1.60;;
66923;SDS011;53835;47.984;7.844;2022-09-02T14:09:23;2.20;;;1.90;;
66923;SDS011;53835;47.984;7.844;2022-09-02T14:11:50;2.72;;;1.90;;
66923;SDS011;53835;47.984;7.844;2022-09-02T14:14:20;2.95;;;1.90;;
66923;SDS011;53835;47.984;7.844;2022-09-02T14:16:48;3.22;;;1.75;;
66923;SDS011;53835;47.984;7.844;2022-09-02T14:21:48;3.30;;;2.10;;
66923;SDS011;53835;47.984;7.844;2022-09-02T14:24:13;3.02;;;1.70;;
66923;SDS011;53835;47.984;7.844;2022-09-02T14:26:42;2.15;;;1.65;;
66923;SDS011;53835;47.984;7.844;2022-09-02T14:29:14;1.90;;;1.80;;
66923;SDS011;53835;47.984;7.844;2022-09-02T14:31:41;2.90;;;1.65;;
66923;SDS011;53835;47.984;7.844;2022-09-02T14:36:54;3.30;;;2.02;;
66923;SDS011;53835;47.984;7.844;2022-09-02T14:39:21;3.10;;;1.77;;
66923;SDS011;53835;47.984;7.844;2022-09-02T14:41:49;1.87;;;1.77;;
66923;SDS011;53835;47.984;7.844;2022-09-02T14:44:21;4.53;;;1.80;;
66923;SDS011;53835;47.984;7.844;2022-09-02T14:46:49;3.80;;;2.00;;
66923;SDS011;53835;47.984;7.844;2022-09-02T14:51:51;3.55;;;1.87;;
66923;SDS011;53835;47.984;7.844;2022-09-02T14:57:56;3.77;;;2.12;;
66923;SDS011;53835;47.984;7.844;2022-09-02T14:59:33;2.35;;;1.98;;
66923;SDS011;53835;47.984;7.844;2022-09-02T15:02:00;2.45;;;2.08;;
66923;SDS011;53835;47.984;7.844;2022-09-02T15:04:28;2.65;;;2.20;;
66923;SDS011;53835;47.984;7.844;2022-09-02T15:06:57;2.60;;;1.90;;
66923;SDS011;53835;47.984;7.844;2022-09-02T15:09:25;2.62;;;1.90;;
66923;SDS011;53835;47.984;7.844;2022-09-02T15:11:52;2.60;;;2.33;;
66923;SDS011;53835;47.984;7.844;2022-09-02T15:14:20;3.00;;;2.17;;
66923;SDS011;53835;47.984;7.844;2022-09-02T15:16:47;2.30;;;2.10;;
66923;SDS011;53835;47.984;7.844;2022-09-02T15:19:15;3.17;;;1.77;;
66923;SDS011;53835;47.984;7.844;2022-09-02T15:21:43;4.05;;;2.08;;
66923;SDS011;53835;47.984;7.844;2022-09-02T15:24:10;2.98;;;2.20;;
66923;SDS011;53835;47.984;7.844;2022-09-02T15:26:37;2.95;;;2.30;;
66923;SDS011;53835;47.984;7.844;2022-09-02T15:29:05;3.08;;;2.05;;
66923;SDS011;53835;47.984;7.844;2022-09-02T15:31:32;3.30;;;2.30;;
66923;SDS011;53835;47.984;7.844;2022-09-02T15:34:01;3.67;;;2.20;;
66923;SDS011;53835;47.984;7.844;2022-09-02T15:36:28;2.80;;;2.00;;
66923;SDS011;53835;47.984;7.844;2022-09-02T15:38:56;3.70;;;2.33;;
66923;SDS011;53835;47.984;7.844;2022-09-02T15:41:23;4.25;;;2.10;;
66923;SDS011;53835;47.984;7.844;2022-09-02T15:43:52;3.55;;;2.15;;
66923;SDS011;53835;47.984;7.844;2022-09-02T15:46:23;6.92;;;2.15;;
66923;SDS011;53835;47.984;7.844;2022-09-02T15:48:51;2.45;;;2.25;;
66923;SDS011;53835;47.984;7.844;2022-09-02T15:51:20;3.50;;;2.20;;
66923;SDS011;53835;47.984;7.844;2022-09-02T15:53:52;2.25;;;2.10;;
66923;SDS011;53835;47.984;7.844;2022-09-02T15:56:21;4.58;;;1.90;;
66923;SDS011;53835;47.984;7.844;2022-09-02T15:58:45;5.47;;;2.45;;
66923;SDS011;53835;47.984;7.844;2022-09-02T16:01:13;16.93;;;2.90;;
66923;SDS011;53835;47.984;7.844;2022-09-02T16:03:40;4.17;;;2.00;;
66923;SDS011;53835;47.984;7.844;2022-09-02T16:06:07;3.98;;;2.00;;
66923;SDS011;53835;47.984;7.844;2022-09-02T16:08:35;6.08;;;1.80;;
66923;SDS011;53835;47.984;7.844;2022-09-02T16:11:03;3.77;;;2.02;;
66923;SDS011;53835;47.984;7.844;2022-09-02T16:13:31;3.08;;;1.20;;
66923;SDS011;53835;47.984;7.844;2022-09-02T16:16:00;2.87;;;1.60;;
66923;SDS011;53835;47.984;7.844;2022-09-02T16:18:28;4.97;;;1.65;;
66923;SDS011;53835;47.984;7.844;2022-09-02T16:20:55;8.13;;;1.65;;
66923;SDS011;53835;47.984;7.844;2022-09-02T16:23:22;4.28;;;1.62;;
66923;SDS011;53835;47.984;7.844;2022-09-02T16:26:06;3.45;;;1.40;;
66923;SDS011;53835;47.984;7.844;2022-09-02T16:28:34;3.47;;;1.67;;
66923;SDS011;53835;47.984;7.844;2022-09-02T16:31:03;1.82;;;1.47;;
66923;SDS011;53835;47.984;7.844;2022-09-02T16:33:30;2.45;;;1.67;;
66923;SDS011;53835;47.984;7.844;2022-09-02T16:35:58;2.00;;;1.65;;
66923;SDS011;53835;47.984;7.844;2022-09-02T16:38:25;1.50;;;1.40;;
66923;SDS011;53835;47.984;7.844;2022-09-02T16:40:53;2.10;;;1.30;;
66923;SDS011;53835;47.984;7.844;2022-09-02T16:43:20;4.17;;;1.72;;
66923;SDS011;53835;47.984;7.844;2022-09-02T16:45:53;3.40;;;1.50;;
66923;SDS011;53835;47.984;7.844;2022-09-02T16:48:18;2.65;;;1.72;;
66923;SDS011;53835;47.984;7.844;2022-09-02T16:50:46;3.52;;;1.77;;
66923;SDS011;53835;47.984;7.844;2022-09-02T16:53:13;4.37;;;1.77;;
66923;SDS011;53835;47.984;7.844;2022-09-02T16:55:42;1.98;;;1.60;;